Accord, New York
Current Conditions -  °F | °C
As of 9:54 PM on Wednesday 22 Oct 2014 (Local Time) from KMGJ Reporting Station
Light Rain Light Rain  
Wind Chill: 51°   Ceiling: 3800
Heat Index: 51°   Visibility: 10mi
Dew Point: 47°   Wind: 16mph
Humidity: 86%   Direction: 10°N
Pressure: 29.84"   Gusts: 25mph
Location:  41.79°N, 74.23°W
Report Text: KMGJ 230154Z AUTO 01014G22KT 10SM -RA SCT026 BKN038 OVC046 11/08 A2984 RMK AO2 SLP104 P0007 T01060083 TSNO
Loading
Personal Weather Stations






























Interactive Weather Map
Tropical Storm Tracking
New forecast layout! Learn more

10-Day Weather Forecast

Advertisements
Track Severe Weather on mobile